createdAt,value
2023-03-22T00:01:14.070Z,10.50
2023-03-22T00:03:41.066Z,13.90
2023-03-22T00:06:08.377Z,13.32
2023-03-22T00:08:35.686Z,13.25
2023-03-22T00:11:03.403Z,12.55
2023-03-22T00:13:31.509Z,11.50
2023-03-22T00:15:59.863Z,13.70
2023-03-22T00:18:26.788Z,16.77
2023-03-22T00:20:55.807Z,13.02
2023-03-22T00:23:23.887Z,12.85
2023-03-22T00:25:50.788Z,16.48
2023-03-22T00:28:18.222Z,23.88
2023-03-22T00:30:56.609Z,23.88
2023-03-22T00:33:27.868Z,21.65
2023-03-22T00:35:58.704Z,21.25
2023-03-22T00:38:41.214Z,23.10
2023-03-22T00:41:28.726Z,22.38
2023-03-22T00:43:55.523Z,23.55
2023-03-22T00:46:23.134Z,19.95
2023-03-22T00:48:49.999Z,18.77
2023-03-22T00:51:18.075Z,16.42
2023-03-22T00:53:44.898Z,18.02
2023-03-22T00:56:16.272Z,16.10
2023-03-22T00:58:48.038Z,14.75
2023-03-22T01:01:15.262Z,14.13
2023-03-22T01:03:43.434Z,16.13
2023-03-22T01:06:14.083Z,12.95
2023-03-22T01:08:41.014Z,16.65
2023-03-22T01:11:09.787Z,13.70
2023-03-22T01:13:42.006Z,13.02
2023-03-22T01:16:10.450Z,17.55
2023-03-22T01:18:37.675Z,14.15
2023-03-22T01:21:07.159Z,13.13
2023-03-22T01:23:34.405Z,14.52
2023-03-22T01:26:02.687Z,13.65
2023-03-22T01:28:30.367Z,13.75
2023-03-22T01:31:00.569Z,16.73
2023-03-22T01:33:27.425Z,12.80
2023-03-22T01:35:54.343Z,11.73
2023-03-22T01:38:21.720Z,13.57
2023-03-22T01:40:53.670Z,13.63
2023-03-22T01:43:21.122Z,12.35
2023-03-22T01:45:50.330Z,14.18
2023-03-22T01:48:26.814Z,15.73
2023-03-22T01:50:59.801Z,16.02
2023-03-22T01:53:28.162Z,18.88
2023-03-22T01:55:57.725Z,17.52
2023-03-22T01:58:29.960Z,19.45
2023-03-22T02:01:00.917Z,19.75
2023-03-22T02:04:15.761Z,20.45
2023-03-22T02:06:43.215Z,24.30
2023-03-22T02:09:22.151Z,16.33
2023-03-22T02:11:59.935Z,20.08
2023-03-22T02:15:09.933Z,20.98
2023-03-22T02:18:11.436Z,18.77
2023-03-22T02:20:51.061Z,17.77
2023-03-22T02:23:46.575Z,15.45
2023-03-22T02:26:24.308Z,20.92
2023-03-22T02:28:58.343Z,16.83
2023-03-22T02:31:49.514Z,18.58
2023-03-22T02:34:40.753Z,16.40
2023-03-22T02:37:22.318Z,14.93
2023-03-22T02:40:15.143Z,15.55
2023-03-22T02:43:08.785Z,16.30
2023-03-22T02:45:45.825Z,16.05
2023-03-22T02:48:34.417Z,20.45
2023-03-22T02:51:08.297Z,15.75
2023-03-22T02:53:47.076Z,17.40
2023-03-22T02:56:30.312Z,16.92
2023-03-22T02:59:02.577Z,18.45
2023-03-22T03:01:37.242Z,20.17
2023-03-22T03:04:09.562Z,18.20
2023-03-22T03:06:45.997Z,13.25
2023-03-22T03:09:18.850Z,14.55
2023-03-22T03:11:47.928Z,12.13
2023-03-22T03:14:27.137Z,13.98
2023-03-22T03:17:22.340Z,14.05
2023-03-22T03:20:13.601Z,15.48
2023-03-22T03:23:01.340Z,17.17
2023-03-22T03:25:46.527Z,11.07
2023-03-22T03:28:30.348Z,11.93
2023-03-22T03:31:07.928Z,13.10
2023-03-22T03:33:40.174Z,11.85
2023-03-22T03:36:11.350Z,16.65
2023-03-22T03:38:44.593Z,17.42
2023-03-22T03:41:20.316Z,16.98
2023-03-22T03:43:51.423Z,21.83
2023-03-22T03:46:18.616Z,18.40
2023-03-22T03:48:48.544Z,17.35
2023-03-22T03:51:15.402Z,17.52
2023-03-22T03:53:49.217Z,16.90
2023-03-22T03:56:17.330Z,13.98
2023-03-22T03:58:46.555Z,16.55
2023-03-22T04:01:13.646Z,15.68
2023-03-22T04:03:55.669Z,19.67
2023-03-22T04:06:45.901Z,17.63
2023-03-22T04:09:17.601Z,15.43
2023-03-22T04:11:49.009Z,17.45
2023-03-22T04:14:16.450Z,17.52
2023-03-22T04:16:46.938Z,19.63
2023-03-22T04:19:19.195Z,17.15
2023-03-22T04:21:46.367Z,16.48
2023-03-22T04:24:14.165Z,18.42
2023-03-22T04:26:43.410Z,15.23
2023-03-22T04:29:18.992Z,15.15
2023-03-22T04:31:50.348Z,15.43
2023-03-22T04:34:21.543Z,15.30
2023-03-22T04:36:52.016Z,14.13
2023-03-22T04:39:30.970Z,14.35
2023-03-22T04:42:19.158Z,17.63
2023-03-22T04:44:46.986Z,15.75
2023-03-22T04:47:13.757Z,15.75
2023-03-22T04:49:40.983Z,17.10
2023-03-22T04:52:08.306Z,16.63
2023-03-22T04:54:37.523Z,15.75
2023-03-22T04:57:04.925Z,11.57
2023-03-22T04:59:37.828Z,14.50
2023-03-22T05:02:05.357Z,13.30
2023-03-22T05:04:39.113Z,13.27
2023-03-22T05:07:14.287Z,11.85
2023-03-22T05:09:46.809Z,9.93
2023-03-22T05:12:14.674Z,10.82
2023-03-22T05:14:50.533Z,15.13
2023-03-22T05:17:22.862Z,11.40
2023-03-22T05:19:52.364Z,9.60
2023-03-22T05:22:22.485Z,9.85
2023-03-22T05:24:51.347Z,11.13
2023-03-22T05:27:31.364Z,11.52
2023-03-22T05:30:06.511Z,8.98
2023-03-22T05:32:44.114Z,9.90
2023-03-22T05:35:12.109Z,8.25
2023-03-22T05:37:43.437Z,10.07
2023-03-22T05:40:13.533Z,9.65
2023-03-22T05:42:43.558Z,9.32
2023-03-22T05:45:18.776Z,10.05
2023-03-22T05:47:50.691Z,11.40
2023-03-22T05:50:23.017Z,12.23
2023-03-22T05:52:50.607Z,11.75
2023-03-22T05:55:32.292Z,12.50
2023-03-22T05:58:02.327Z,11.05
2023-03-22T06:00:36.057Z,13.57
2023-03-22T06:03:23.472Z,11.13
2023-03-22T06:05:58.540Z,12.25
2023-03-22T06:08:41.110Z,11.95
2023-03-22T06:11:08.085Z,13.90
2023-03-22T06:13:37.399Z,23.80
2023-03-22T06:16:06.140Z,14.43
2023-03-22T06:18:33.430Z,11.60
2023-03-22T06:21:08.514Z,13.40
2023-03-22T06:23:36.188Z,18.40
2023-03-22T06:26:03.167Z,12.73
2023-03-22T06:28:31.283Z,13.13
2023-03-22T06:31:05.442Z,12.90
2023-03-22T06:33:58.641Z,15.73
2023-03-22T06:36:31.705Z,11.18
2023-03-22T06:39:08.816Z,11.85
2023-03-22T06:41:36.038Z,15.52
2023-03-22T06:44:03.026Z,13.40
2023-03-22T06:46:56.207Z,13.40
2023-03-22T06:49:42.834Z,12.70
2023-03-22T06:52:15.209Z,13.35
2023-03-22T06:54:42.086Z,19.20
2023-03-22T06:57:10.184Z,14.80
2023-03-22T06:59:36.985Z,14.82
2023-03-22T07:02:04.440Z,15.18
2023-03-22T07:04:33.199Z,15.27
2023-03-22T07:07:00.051Z,18.27
2023-03-22T07:09:27.695Z,20.13
2023-03-22T07:11:57.843Z,17.10
2023-03-22T07:14:25.324Z,22.23
2023-03-22T07:17:06.634Z,20.73
2023-03-22T07:19:34.225Z,20.80
2023-03-22T07:22:06.502Z,25.58
2023-03-22T07:24:33.871Z,24.85
2023-03-22T07:27:02.217Z,28.83
2023-03-22T07:29:29.598Z,27.33
2023-03-22T07:31:56.837Z,31.10
2023-03-22T07:34:32.687Z,31.20
2023-03-22T07:37:12.429Z,28.27
2023-03-22T07:39:41.080Z,25.58
2023-03-22T07:42:08.032Z,17.23
2023-03-22T07:45:13.339Z,20.35
2023-03-22T07:47:41.535Z,18.92
2023-03-22T07:50:17.756Z,20.60
2023-03-22T07:52:47.729Z,21.33
2023-03-22T07:55:14.975Z,17.83
2023-03-22T07:57:42.312Z,18.52
2023-03-22T08:00:10.537Z,21.88
2023-03-22T08:08:00.682Z,17.42
2023-03-22T08:10:27.844Z,20.15
2023-03-22T08:12:55.180Z,19.90
2023-03-22T08:15:25.680Z,23.38
2023-03-22T08:17:53.450Z,26.13
2023-03-22T08:20:32.839Z,26.20
2023-03-22T08:23:04.174Z,26.20
2023-03-22T08:25:43.360Z,32.90
2023-03-22T08:28:12.000Z,28.90
2023-03-22T08:30:39.787Z,31.05
2023-03-22T08:33:06.773Z,27.52
2023-03-22T08:35:34.659Z,26.88
2023-03-22T08:38:01.524Z,25.98
2023-03-22T08:40:36.883Z,31.27
2023-03-22T08:43:04.207Z,31.92
2023-03-22T08:45:31.072Z,29.55
2023-03-22T08:48:06.108Z,30.83
2023-03-22T08:50:46.575Z,35.22
2023-03-22T08:53:21.784Z,31.20
2023-03-22T08:55:58.127Z,34.92
2023-03-22T08:58:35.942Z,38.75
2023-03-22T09:01:21.149Z,33.17
2023-03-22T09:03:52.755Z,48.17
2023-03-22T09:06:20.004Z,43.83
2023-03-22T09:08:47.376Z,33.00
2023-03-22T09:11:17.959Z,28.08
2023-03-22T09:13:51.259Z,25.38
2023-03-22T09:16:19.145Z,22.35
2023-03-22T09:18:47.244Z,22.92
2023-03-22T09:21:21.885Z,23.77
2023-03-22T09:24:09.370Z,22.25
2023-03-22T09:26:43.567Z,27.25
2023-03-22T09:29:10.926Z,28.02
2023-03-22T09:31:39.931Z,26.92
2023-03-22T09:34:16.119Z,23.45
2023-03-22T09:36:42.966Z,25.13
2023-03-22T09:39:13.336Z,26.52
2023-03-22T09:41:43.450Z,26.23
2023-03-22T09:44:26.173Z,20.95
2023-03-22T09:46:55.578Z,17.80
2023-03-22T09:49:32.138Z,18.90
2023-03-22T09:52:00.029Z,16.42
2023-03-22T09:54:35.902Z,12.57
2023-03-22T09:57:11.589Z,13.68
2023-03-22T09:59:48.287Z,17.77
2023-03-22T10:02:45.964Z,12.13
2023-03-22T10:05:22.196Z,8.48
2023-03-22T10:08:18.068Z,8.13
2023-03-22T10:10:45.569Z,10.18
2023-03-22T10:13:19.985Z,11.60
2023-03-22T10:16:00.041Z,8.93
2023-03-22T10:18:33.717Z,8.40
2023-03-22T10:21:11.021Z,10.40
2023-03-22T10:23:46.881Z,10.77
2023-03-22T10:26:20.089Z,14.00
2023-03-22T10:28:56.064Z,13.20
2023-03-22T10:31:24.204Z,14.40
2023-03-22T10:34:05.808Z,11.27
2023-03-22T10:36:36.665Z,11.18
2023-03-22T10:41:39.507Z,9.77
2023-03-22T10:44:07.372Z,8.93
2023-03-22T10:46:39.363Z,8.82
2023-03-22T10:49:07.809Z,8.98
2023-03-22T10:51:43.691Z,9.57
2023-03-22T10:54:17.352Z,8.68
2023-03-22T10:56:45.095Z,7.13
2023-03-22T10:59:49.267Z,8.45
2023-03-22T11:02:27.690Z,7.13
2023-03-22T11:05:00.615Z,8.15
2023-03-22T11:07:36.665Z,6.57
2023-03-22T11:10:09.497Z,7.72
2023-03-22T11:12:57.316Z,6.57
2023-03-22T11:15:28.064Z,9.95
2023-03-22T11:18:00.500Z,8.65
2023-03-22T11:20:29.945Z,7.00
2023-03-22T11:23:02.781Z,7.80
2023-03-22T11:25:32.574Z,7.43
2023-03-22T11:28:05.494Z,9.30
2023-03-22T11:30:36.301Z,5.90
2023-03-22T11:35:38.816Z,9.07
2023-03-22T11:38:05.727Z,8.20
2023-03-22T11:40:36.488Z,7.15
2023-03-22T11:43:24.301Z,8.55
2023-03-22T11:45:56.468Z,8.75
2023-03-22T11:48:27.399Z,6.47
2023-03-22T11:50:59.415Z,8.18
2023-03-22T11:53:28.207Z,9.30
2023-03-22T11:55:57.685Z,5.95
2023-03-22T11:58:28.283Z,7.20
2023-03-22T12:00:59.563Z,7.05
2023-03-22T12:03:36.736Z,7.63
2023-03-22T12:06:15.821Z,14.55
2023-03-22T12:08:42.883Z,7.72
2023-03-22T12:11:19.828Z,8.10
2023-03-22T12:14:29.648Z,8.40
2023-03-22T12:17:02.553Z,6.13
2023-03-22T12:20:12.345Z,7.85
2023-03-22T12:22:43.499Z,5.15
2023-03-22T12:25:17.535Z,9.93
2023-03-22T12:27:48.542Z,7.75
2023-03-22T12:30:22.981Z,9.07
2023-03-22T12:32:58.748Z,9.48
2023-03-22T12:35:30.195Z,6.90
2023-03-22T12:37:59.603Z,6.88
2023-03-22T12:40:32.239Z,6.72
2023-03-22T12:43:22.625Z,5.88
2023-03-22T12:45:54.932Z,5.72
2023-03-22T12:48:39.747Z,5.25
2023-03-22T12:51:09.209Z,5.82
2023-03-22T12:53:42.593Z,6.40
2023-03-22T12:56:12.939Z,6.15
2023-03-22T12:58:40.629Z,7.03
2023-03-22T13:01:29.099Z,8.65
2023-03-22T13:03:57.878Z,6.22
2023-03-22T13:06:44.210Z,6.80
2023-03-22T13:09:16.992Z,11.98
2023-03-22T13:11:49.799Z,5.70
2023-03-22T13:14:48.958Z,5.60
2023-03-22T13:17:38.229Z,5.25
2023-03-22T13:20:08.113Z,9.75
2023-03-22T13:22:38.039Z,8.30
2023-03-22T13:25:14.501Z,12.02
2023-03-22T13:28:03.332Z,7.55
2023-03-22T13:30:34.885Z,10.30
2023-03-22T13:33:10.557Z,7.47
2023-03-22T13:36:01.400Z,6.63
2023-03-22T13:38:37.174Z,7.00
2023-03-22T13:41:28.141Z,7.72
2023-03-22T13:44:00.528Z,5.47
2023-03-22T13:46:29.296Z,7.65
2023-03-22T13:49:01.889Z,7.75
2023-03-22T13:51:32.031Z,11.30
2023-03-22T13:54:08.670Z,8.38
2023-03-22T13:56:56.304Z,6.53
2023-03-22T13:59:25.579Z,9.18
2023-03-22T14:01:52.434Z,5.88
2023-03-22T14:04:50.740Z,7.80
2023-03-22T14:07:23.339Z,7.85
2023-03-22T14:09:54.332Z,10.48
2023-03-22T14:12:45.252Z,7.65
2023-03-22T14:15:17.421Z,11.60
2023-03-22T14:17:50.596Z,7.60
2023-03-22T14:20:21.608Z,11.07
